createdAt,value
2017-07-19T00:00:18.916Z,992.54
2017-07-19T00:01:18.541Z,992.56
2017-07-19T00:02:18.566Z,992.51
2017-07-19T00:03:18.691Z,992.54
2017-07-19T00:04:18.409Z,992.53
2017-07-19T00:05:18.734Z,992.52
2017-07-19T00:06:18.554Z,992.60
2017-07-19T00:07:18.179Z,992.53
2017-07-19T00:08:18.229Z,992.50
2017-07-19T00:09:18.162Z,992.59
2017-07-19T00:10:18.183Z,992.50
2017-07-19T00:11:18.201Z,992.46
2017-07-19T00:12:18.723Z,992.52
2017-07-19T00:13:18.574Z,992.33
2017-07-19T00:14:18.638Z,992.44
2017-07-19T00:15:18.762Z,992.41
2017-07-19T00:16:18.588Z,992.38
2017-07-19T00:17:18.626Z,992.34
2017-07-19T00:18:18.798Z,992.40
2017-07-19T00:19:18.624Z,992.43
2017-07-19T00:20:18.954Z,992.39
2017-07-19T00:21:18.475Z,992.38
2017-07-19T00:22:18.394Z,992.36
2017-07-19T00:23:18.218Z,992.37
2017-07-19T00:24:18.241Z,992.34
2017-07-19T00:25:19.476Z,992.43
2017-07-19T00:26:18.290Z,992.42
2017-07-19T00:27:18.723Z,992.32
2017-07-19T00:28:18.259Z,992.33
2017-07-19T00:29:18.692Z,992.32
2017-07-19T00:30:18.823Z,992.32
2017-07-19T00:31:18.664Z,992.31
2017-07-19T00:32:18.682Z,992.35
2017-07-19T00:33:18.839Z,992.38
2017-07-19T00:34:18.712Z,992.26
2017-07-19T00:35:18.944Z,992.35
2017-07-19T00:36:18.664Z,992.32
2017-07-19T00:37:18.480Z,992.27
2017-07-19T00:38:18.515Z,992.26
2017-07-19T00:39:18.243Z,992.26
2017-07-19T00:40:18.790Z,992.24
2017-07-19T00:41:18.317Z,992.21
2017-07-19T00:42:18.756Z,992.30
2017-07-19T00:43:18.382Z,992.28
2017-07-19T00:44:18.312Z,992.32
2017-07-19T00:45:18.827Z,992.29
2017-07-19T00:46:18.760Z,992.21
2017-07-19T00:47:18.800Z,992.27
2017-07-19T00:48:18.714Z,992.25
2017-07-19T00:49:18.738Z,992.29
2017-07-19T00:50:18.980Z,992.36
2017-07-19T00:51:18.830Z,992.27
2017-07-19T00:52:18.749Z,992.24
2017-07-19T00:53:18.776Z,992.23
2017-07-19T00:54:18.511Z,992.25
2017-07-19T00:55:18.834Z,992.18
2017-07-19T00:56:18.556Z,992.17
2017-07-19T00:57:18.806Z,992.18
2017-07-19T00:58:18.422Z,992.13
2017-07-19T00:59:18.345Z,992.12
2017-07-19T01:03:13.910Z,992.16
2017-07-19T01:03:14.516Z,992.17
2017-07-19T01:03:15.226Z,992.26
2017-07-19T01:05:49.022Z,992.25
2017-07-19T01:05:50.267Z,992.16
2017-07-19T01:05:50.874Z,992.21
2017-07-19T01:10:16.156Z,992.07
2017-07-19T01:10:46.116Z,992.07
2017-07-19T01:10:46.723Z,992.13
2017-07-19T01:10:47.330Z,992.11
2017-07-19T01:10:47.937Z,992.06
2017-07-19T01:10:48.545Z,992.18
2017-07-19T01:11:18.814Z,992.05
2017-07-19T01:14:05.137Z,992.07
2017-07-19T01:14:05.954Z,992.09
2017-07-19T01:14:18.399Z,992.07
2017-07-19T01:17:53.824Z,992.02
2017-07-19T01:17:54.432Z,992.08
2017-07-19T01:17:55.041Z,992.05
2017-07-19T01:21:08.824Z,992.05
2017-07-19T01:21:09.432Z,991.93
2017-07-19T01:21:10.037Z,991.98
2017-07-19T01:23:45.038Z,991.91
2017-07-19T01:23:45.658Z,991.92
2017-07-19T01:23:47.173Z,992.01
2017-07-19T01:27:06.089Z,992.00
2017-07-19T01:27:06.898Z,991.99
2017-07-19T01:27:07.506Z,992.02
2017-07-19T01:29:45.030Z,992.00
2017-07-19T01:29:46.100Z,992.07
2017-07-19T01:29:47.527Z,992.02
2017-07-19T01:32:31.080Z,992.06
2017-07-19T01:32:31.891Z,992.05
2017-07-19T01:32:32.502Z,992.07
2017-07-19T01:35:45.004Z,992.10
2017-07-19T01:35:45.612Z,992.04
2017-07-19T01:35:47.172Z,992.08
2017-07-19T01:38:31.771Z,992.08
2017-07-19T01:38:32.580Z,992.03
2017-07-19T01:38:33.188Z,992.05
2017-07-19T01:41:45.107Z,992.11
2017-07-19T01:41:45.964Z,992.10
2017-07-19T01:41:47.404Z,992.06
2017-07-19T01:44:32.561Z,992.06
2017-07-19T01:44:33.167Z,992.08
2017-07-19T01:44:33.774Z,992.03
2017-07-19T01:48:01.793Z,991.97
2017-07-19T01:48:02.406Z,992.00
2017-07-19T01:48:03.011Z,992.02
2017-07-19T01:50:39.827Z,992.00
2017-07-19T01:50:40.434Z,992.00
2017-07-19T01:50:41.042Z,991.95
2017-07-19T01:57:06.030Z,991.95
2017-07-19T01:57:06.636Z,991.97
2017-07-19T01:57:07.248Z,991.99
2017-07-19T01:57:07.855Z,991.91
2017-07-19T01:57:08.562Z,991.99
2017-07-19T01:57:09.170Z,991.91
2017-07-19T01:59:46.194Z,991.95
2017-07-19T01:59:47.603Z,991.89
2017-07-19T01:59:49.177Z,991.84
2017-07-19T02:00:16.372Z,991.84
2017-07-19T02:00:18.483Z,991.87
2017-07-19T02:01:18.925Z,991.90
2017-07-19T02:02:19.202Z,991.91
2017-07-19T02:03:19.243Z,991.88
2017-07-19T02:04:18.561Z,991.89
2017-07-19T02:05:18.583Z,991.83
2017-07-19T02:06:18.500Z,991.88
2017-07-19T02:07:19.028Z,991.91
2017-07-19T02:08:18.990Z,991.90
2017-07-19T02:09:18.940Z,991.92
2017-07-19T02:10:18.967Z,991.90
2017-07-19T02:11:18.989Z,991.82
2017-07-19T02:12:19.272Z,991.84
2017-07-19T02:13:18.998Z,991.91
2017-07-19T02:14:18.762Z,991.84
2017-07-19T02:15:18.789Z,991.86
2017-07-19T02:16:18.810Z,991.83
2017-07-19T02:17:19.231Z,991.89
2017-07-19T02:18:19.254Z,991.92
2017-07-19T02:19:18.579Z,991.80
2017-07-19T02:20:18.549Z,991.91
2017-07-19T02:21:18.567Z,991.85
2017-07-19T02:22:19.288Z,991.82
2017-07-19T02:23:18.604Z,991.85
2017-07-19T02:24:18.939Z,991.76
2017-07-19T02:25:18.978Z,991.82
2017-07-19T02:26:19.018Z,991.76
2017-07-19T02:27:19.247Z,991.86
2017-07-19T02:28:18.962Z,991.76
2017-07-19T02:29:19.113Z,991.83
2017-07-19T02:30:19.034Z,991.84
2017-07-19T02:31:19.066Z,991.87
2017-07-19T02:32:19.291Z,991.82
2017-07-19T02:33:19.327Z,991.85
2017-07-19T02:34:18.848Z,991.84
2017-07-19T02:35:18.576Z,991.83
2017-07-19T02:36:18.928Z,991.85
2017-07-19T02:37:19.162Z,991.84
2017-07-19T02:38:18.687Z,991.80
2017-07-19T02:39:18.609Z,991.87
2017-07-19T02:40:19.037Z,991.80
2017-07-19T02:41:19.066Z,991.85
2017-07-19T02:42:19.292Z,991.83
2017-07-19T02:43:19.017Z,991.84
2017-07-19T02:44:19.131Z,991.86
2017-07-19T02:45:19.056Z,991.78
2017-07-19T02:46:19.120Z,991.74
2017-07-19T02:47:19.143Z,991.73
2017-07-19T02:48:19.162Z,991.88
2017-07-19T02:49:18.910Z,991.81
2017-07-19T02:50:18.839Z,991.82
2017-07-19T02:51:18.658Z,991.83
2017-07-19T02:52:18.685Z,991.82
2017-07-19T02:53:18.729Z,991.72
2017-07-19T02:54:18.653Z,984.80
2017-07-19T02:55:19.082Z,991.73
2017-07-19T02:56:19.023Z,991.68
2017-07-19T02:57:19.161Z,991.69
2017-07-19T02:58:19.108Z,991.65
2017-07-19T02:59:19.110Z,991.64
2017-07-19T03:00:19.061Z,991.61
2017-07-19T03:01:19.146Z,991.66
2017-07-19T03:02:19.212Z,991.70
2017-07-19T03:03:19.160Z,991.62
2017-07-19T03:04:18.887Z,991.68
2017-07-19T03:05:18.920Z,991.62
2017-07-19T03:06:18.934Z,991.61
2017-07-19T03:07:18.968Z,991.67
2017-07-19T03:08:18.700Z,991.67
2017-07-19T03:09:18.724Z,991.60
2017-07-19T03:10:18.752Z,991.63
2017-07-19T03:11:18.678Z,991.70
2017-07-19T03:12:19.214Z,991.65
2017-07-19T03:13:19.134Z,991.62
2017-07-19T03:14:19.155Z,991.69
2017-07-19T03:15:19.187Z,991.65
2017-07-19T03:16:19.111Z,991.67
2017-07-19T03:17:19.155Z,991.70
2017-07-19T03:18:19.183Z,991.69
2017-07-19T03:19:19.099Z,991.74
2017-07-19T03:20:19.037Z,991.68
2017-07-19T03:21:18.962Z,991.76
2017-07-19T03:22:18.983Z,991.77
2017-07-19T03:23:19.006Z,991.79
2017-07-19T03:24:18.722Z,991.74
2017-07-19T03:25:18.748Z,991.80
2017-07-19T03:26:18.767Z,991.79
2017-07-19T03:27:18.892Z,991.82
2017-07-19T03:28:18.920Z,991.80
2017-07-19T03:29:18.743Z,991.86
2017-07-19T03:30:19.172Z,991.88
2017-07-19T03:31:19.200Z,991.85
2017-07-19T03:32:19.222Z,991.91
2017-07-19T03:33:19.259Z,991.81
2017-07-19T03:34:19.200Z,991.80
2017-07-19T03:35:19.245Z,991.83
2017-07-19T03:36:18.972Z,991.81
2017-07-19T03:37:19.016Z,991.75
2017-07-19T03:38:19.038Z,991.78
2017-07-19T03:39:42.606Z,991.78
2017-07-19T03:41:16.809Z,991.76
2017-07-19T03:41:17.416Z,991.75
2017-07-19T03:41:18.825Z,991.72
2017-07-19T03:42:19.060Z,991.81
2017-07-19T03:43:19.188Z,991.82
2017-07-19T03:44:19.212Z,991.81
2017-07-19T03:45:19.236Z,991.73
2017-07-19T03:46:19.267Z,991.71
2017-07-19T03:47:19.398Z,991.82
2017-07-19T03:48:19.319Z,991.72
2017-07-19T03:49:19.241Z,991.76
2017-07-19T03:50:19.268Z,991.72
2017-07-19T03:51:19.289Z,991.77
2017-07-19T03:52:19.320Z,991.76
2017-07-19T03:53:19.056Z,991.77
2017-07-19T03:54:19.088Z,991.84
2017-07-19T03:55:19.122Z,991.79
2017-07-19T03:56:18.844Z,991.83
2017-07-19T03:57:18.868Z,991.79
2017-07-19T03:58:18.825Z,991.81
2017-07-19T03:59:18.854Z,991.80
2017-07-19T04:00:18.897Z,991.83
2017-07-19T04:01:19.335Z,991.81
2017-07-19T04:02:19.281Z,991.79
2017-07-19T04:03:19.306Z,991.82
2017-07-19T04:04:19.337Z,991.81
2017-07-19T04:05:19.263Z,991.80
2017-07-19T04:06:19.286Z,991.84
2017-07-19T04:07:19.327Z,991.83
2017-07-19T04:08:19.261Z,991.83
2017-07-19T04:09:19.302Z,991.75
2017-07-19T04:10:19.656Z,991.73
2017-07-19T04:11:19.091Z,991.78
2017-07-19T04:12:19.124Z,991.77
2017-07-19T04:13:19.161Z,991.80
2017-07-19T04:14:18.896Z,991.79
2017-07-19T04:15:18.940Z,991.81
2017-07-19T04:16:18.869Z,991.75
2017-07-19T04:17:19.392Z,991.83
2017-07-19T04:18:19.326Z,991.80
2017-07-19T04:19:19.343Z,991.80
2017-07-19T04:20:19.375Z,991.75
2017-07-19T04:21:19.302Z,991.76
2017-07-19T04:22:19.354Z,991.80
2017-07-19T04:23:19.309Z,991.68
2017-07-19T04:24:19.345Z,991.72
2017-07-19T04:25:19.378Z,991.71
2017-07-19T04:26:19.109Z,991.76
2017-07-19T04:27:19.167Z,991.75
2017-07-19T04:28:19.309Z,991.73
2017-07-19T04:29:19.250Z,991.70
2017-07-19T04:30:18.984Z,991.66
2017-07-19T04:31:18.916Z,991.79
2017-07-19T04:32:18.959Z,991.74
2017-07-19T04:33:18.990Z,991.68
2017-07-19T04:34:19.339Z,991.70
2017-07-19T04:35:19.421Z,991.78
2017-07-19T04:36:19.361Z,991.79
2017-07-19T04:37:19.397Z,991.76
2017-07-19T04:38:19.360Z,991.74
2017-07-19T04:39:19.378Z,991.70
2017-07-19T04:40:19.421Z,991.74
2017-07-19T04:41:19.362Z,991.69
2017-07-19T04:42:19.187Z,991.58
2017-07-19T04:43:19.234Z,991.69
2017-07-19T04:44:19.197Z,991.65
2017-07-19T04:45:19.232Z,991.65
2017-07-19T04:46:18.965Z,991.70
2017-07-19T04:47:19.040Z,991.68
2017-07-19T04:48:19.055Z,991.70
2017-07-19T04:49:19.043Z,991.63
2017-07-19T04:50:19.014Z,991.75
2017-07-19T04:51:19.474Z,991.70
2017-07-19T04:52:19.523Z,991.77
2017-07-19T04:53:19.478Z,991.70
2017-07-19T04:54:19.449Z,991.72
2017-07-19T04:55:19.487Z,991.77
2017-07-19T04:56:19.389Z,991.74
2017-07-19T04:57:19.381Z,991.77
2017-07-19T04:58:19.481Z,991.78
2017-07-19T04:59:19.373Z,991.70
2017-07-19T05:00:19.368Z,991.76
2017-07-19T05:01:19.298Z,991.78
2017-07-19T05:02:19.303Z,991.76
2017-07-19T05:03:19.009Z,991.77
2017-07-19T05:04:19.012Z,991.72
2017-07-19T05:05:19.124Z,991.72
2017-07-19T05:06:19.047Z,991.70
2017-07-19T05:07:19.508Z,991.73
2017-07-19T05:08:19.495Z,991.73
2017-07-19T05:09:19.481Z,991.73
2017-07-19T05:10:19.591Z,991.77
2017-07-19T05:11:19.466Z,991.81
2017-07-19T05:12:19.438Z,991.84
2017-07-19T05:13:19.488Z,991.81
2017-07-19T05:14:19.521Z,991.81
2017-07-19T05:15:19.539Z,991.79
2017-07-19T05:16:19.274Z,991.88
2017-07-19T05:17:19.358Z,991.87
2017-07-19T05:18:19.308Z,991.76
2017-07-19T05:19:19.098Z,991.79
2017-07-19T05:20:19.146Z,991.74
2017-07-19T05:21:19.137Z,991.70
2017-07-19T05:22:19.126Z,991.81
2017-07-19T05:23:19.500Z,991.77
2017-07-19T05:24:19.469Z,991.74
2017-07-19T05:25:19.552Z,991.80
2017-07-19T05:26:19.540Z,991.76
2017-07-19T05:27:19.548Z,991.78
2017-07-19T05:28:19.523Z,991.69
2017-07-19T05:29:19.493Z,991.62
2017-07-19T05:30:19.566Z,991.73
2017-07-19T05:31:19.301Z,991.79
2017-07-19T05:32:19.360Z,991.73
2017-07-19T05:33:19.336Z,991.74
2017-07-19T05:34:19.386Z,991.73
2017-07-19T05:35:19.418Z,991.64
2017-07-19T05:36:19.103Z,991.64
2017-07-19T05:37:19.164Z,991.60
2017-07-19T05:38:19.123Z,991.68
2017-07-19T05:39:19.606Z,991.66
2017-07-19T05:40:19.583Z,991.68
2017-07-19T05:41:19.579Z,991.70
2017-07-19T05:42:19.601Z,991.70
2017-07-19T05:43:19.606Z,991.69
2017-07-19T05:44:19.593Z,991.62
2017-07-19T05:45:19.557Z,991.74
2017-07-19T05:46:19.639Z,991.68
2017-07-19T05:47:19.323Z,991.70
2017-07-19T05:48:19.413Z,991.71
2017-07-19T05:49:19.368Z,991.62
2017-07-19T05:50:19.395Z,991.65
2017-07-19T05:51:19.413Z,991.67
2017-07-19T05:52:19.188Z,991.74
2017-07-19T05:53:19.208Z,991.69
2017-07-19T05:54:19.316Z,991.73
2017-07-19T05:55:19.218Z,991.76
2017-07-19T05:56:19.610Z,991.75
2017-07-19T05:57:19.641Z,991.77
2017-07-19T05:58:19.572Z,991.81
2017-07-19T05:59:19.563Z,991.80
2017-07-19T06:00:19.645Z,991.79
2017-07-19T06:01:19.661Z,991.79
2017-07-19T06:02:19.617Z,991.98
2017-07-19T06:03:19.641Z,991.82
2017-07-19T06:04:19.408Z,991.78
2017-07-19T06:05:19.457Z,991.89
2017-07-19T06:06:19.524Z,991.83
2017-07-19T06:07:19.198Z,991.84
2017-07-19T06:08:19.968Z,991.79
2017-07-19T06:09:19.226Z,991.81
2017-07-19T06:10:19.287Z,991.75
2017-07-19T06:11:19.264Z,991.78
2017-07-19T06:12:19.717Z,991.78
2017-07-19T06:13:19.614Z,991.76
2017-07-19T06:14:19.763Z,991.72
2017-07-19T06:15:19.709Z,991.73
2017-07-19T06:16:19.655Z,991.75
2017-07-19T06:17:19.711Z,991.73
2017-07-19T06:18:19.670Z,991.68
2017-07-19T06:19:19.628Z,991.71
2017-07-19T06:20:19.736Z,991.66
2017-07-19T06:21:19.494Z,991.73
2017-07-19T06:22:19.457Z,991.58
2017-07-19T06:23:19.240Z,991.75
2017-07-19T06:24:19.298Z,991.72
2017-07-19T06:25:19.296Z,991.69
2017-07-19T06:26:19.237Z,991.72
2017-07-19T06:27:19.505Z,991.70
2017-07-19T06:28:19.822Z,991.77
2017-07-19T06:29:19.647Z,991.73
2017-07-19T06:30:19.747Z,991.76
2017-07-19T06:31:19.757Z,991.78
2017-07-19T06:32:19.741Z,991.74
2017-07-19T06:33:19.833Z,991.70
2017-07-19T06:34:19.654Z,991.69
2017-07-19T06:35:19.758Z,991.67
2017-07-19T06:36:19.742Z,991.74
2017-07-19T06:37:19.459Z,991.68
2017-07-19T06:38:19.481Z,991.68
2017-07-19T06:39:19.526Z,991.70
2017-07-19T06:40:19.622Z,991.68
2017-07-19T06:41:19.353Z,991.71
2017-07-19T06:42:19.363Z,991.65
2017-07-19T06:43:19.384Z,991.67
2017-07-19T06:44:19.308Z,991.58
2017-07-19T06:45:19.831Z,991.65
2017-07-19T06:46:19.782Z,991.62
2017-07-19T06:47:19.700Z,991.66
2017-07-19T06:48:19.772Z,991.69
2017-07-19T06:49:19.765Z,991.67
2017-07-19T06:50:19.884Z,991.65
2017-07-19T06:51:19.845Z,991.66
2017-07-19T06:52:19.731Z,991.62
2017-07-19T06:53:19.829Z,991.61
2017-07-19T06:54:19.543Z,991.51
2017-07-19T06:55:19.598Z,991.57
2017-07-19T06:56:19.580Z,991.53
2017-07-19T06:57:19.639Z,991.57
2017-07-19T06:58:19.414Z,991.52
2017-07-19T06:59:19.491Z,991.53
2017-07-19T07:00:19.388Z,991.54
2017-07-19T07:01:19.873Z,991.50
2017-07-19T07:02:19.815Z,991.54
2017-07-19T07:03:19.847Z,991.52
2017-07-19T07:04:19.822Z,993.54
2017-07-19T07:05:19.820Z,991.54
2017-07-19T07:06:19.884Z,991.47
2017-07-19T07:07:19.848Z,991.48
2017-07-19T07:08:19.827Z,991.49
2017-07-19T07:09:19.557Z,991.50
2017-07-19T07:10:19.608Z,991.44
2017-07-19T07:11:19.567Z,991.44
2017-07-19T07:12:19.627Z,991.47
2017-07-19T07:13:19.684Z,991.37
2017-07-19T07:14:19.393Z,991.42
2017-07-19T07:15:19.410Z,991.47
2017-07-19T07:16:19.434Z,991.48
2017-07-19T07:17:19.442Z,991.40
2017-07-19T07:18:19.824Z,991.42
2017-07-19T07:19:19.842Z,991.40
2017-07-19T07:20:19.825Z,991.50
2017-07-19T07:21:19.835Z,991.38
2017-07-19T07:22:19.910Z,991.41
2017-07-19T07:23:19.877Z,991.44
2017-07-19T07:24:19.840Z,991.36
2017-07-19T07:25:19.902Z,991.35
2017-07-19T07:26:19.634Z,991.37
2017-07-19T07:27:19.701Z,991.29
2017-07-19T07:28:19.692Z,991.37
2017-07-19T07:29:19.443Z,991.32
2017-07-19T07:30:19.792Z,991.32
2017-07-19T07:31:19.434Z,991.23
2017-07-19T07:32:19.501Z,991.28
2017-07-19T07:33:19.518Z,991.25
2017-07-19T07:34:19.444Z,991.21
2017-07-19T07:35:20.100Z,991.27
2017-07-19T07:36:19.859Z,991.20
2017-07-19T07:37:19.992Z,991.21
2017-07-19T07:38:19.911Z,991.12
2017-07-19T07:39:19.884Z,991.09
2017-07-19T07:40:19.955Z,991.12
2017-07-19T07:41:19.874Z,991.11
2017-07-19T07:42:20.001Z,991.10
2017-07-19T07:43:20.013Z,991.05
2017-07-19T07:44:19.724Z,991.03
2017-07-19T07:45:19.711Z,991.05
2017-07-19T07:46:19.729Z,991.04
2017-07-19T07:47:19.883Z,991.00
2017-07-19T07:48:19.579Z,991.00
2017-07-19T07:49:19.468Z,991.01
2017-07-19T07:50:20.018Z,991.02
2017-07-19T07:51:19.946Z,991.01
2017-07-19T07:52:20.083Z,991.02
2017-07-19T07:53:20.129Z,990.95
2017-07-19T07:54:19.954Z,990.99
2017-07-19T07:55:20.148Z,990.97
2017-07-19T07:56:19.908Z,991.04
2017-07-19T07:57:19.973Z,991.00
2017-07-19T07:58:20.108Z,990.98
2017-07-19T07:59:19.700Z,991.02
2017-07-19T08:00:19.741Z,990.97
2017-07-19T08:01:19.833Z,991.00
2017-07-19T08:02:19.784Z,990.94
2017-07-19T08:03:19.944Z,991.04
2017-07-19T08:04:19.883Z,990.96
2017-07-19T08:05:19.602Z,990.94
2017-07-19T08:06:19.623Z,991.02
2017-07-19T08:07:19.645Z,990.93
2017-07-19T08:08:19.631Z,990.89
2017-07-19T08:09:19.984Z,990.86
2017-07-19T08:10:20.038Z,990.92
2017-07-19T08:11:20.330Z,990.94
2017-07-19T08:12:20.154Z,990.88
2017-07-19T08:13:20.038Z,990.90
2017-07-19T08:14:20.332Z,990.87
2017-07-19T08:15:20.207Z,990.89
2017-07-19T08:16:20.092Z,990.89
2017-07-19T08:17:19.840Z,990.84
2017-07-19T08:18:19.835Z,990.85
2017-07-19T08:19:19.867Z,990.85
2017-07-19T08:20:19.628Z,990.91
2017-07-19T08:21:19.684Z,990.86
2017-07-19T08:22:19.663Z,990.86
2017-07-19T08:23:19.585Z,990.81
2017-07-19T08:24:20.054Z,990.80
2017-07-19T08:25:20.238Z,990.85
2017-07-19T08:26:20.022Z,990.84
2017-07-19T08:27:20.167Z,990.84
2017-07-19T08:28:20.049Z,990.75
2017-07-19T08:29:20.143Z,990.85
2017-07-19T08:30:20.326Z,990.78
2017-07-19T08:31:19.998Z,990.81
2017-07-19T08:32:20.089Z,990.87
2017-07-19T08:33:23.590Z,990.88
2017-07-19T08:34:19.634Z,990.89
2017-07-19T08:35:20.122Z,990.86
2017-07-19T08:36:19.998Z,990.88
2017-07-19T08:37:19.631Z,990.91
2017-07-19T08:38:19.725Z,990.83
2017-07-19T08:39:19.690Z,990.78
2017-07-19T08:40:19.748Z,990.72
2017-07-19T08:41:19.667Z,990.68
2017-07-19T08:42:20.106Z,990.74
2017-07-19T08:43:20.147Z,990.77
2017-07-19T08:44:20.063Z,990.67
2017-07-19T08:45:20.262Z,990.64
2017-07-19T08:46:20.195Z,990.67
2017-07-19T08:47:20.205Z,990.63
2017-07-19T08:48:20.152Z,990.66
2017-07-19T08:49:19.861Z,990.64
2017-07-19T08:50:19.889Z,990.66
2017-07-19T08:51:19.854Z,990.51
2017-07-19T08:52:19.901Z,990.48
2017-07-19T08:53:19.929Z,990.47
2017-07-19T08:54:19.656Z,990.44
2017-07-19T08:55:19.791Z,990.46
2017-07-19T08:56:19.694Z,990.51
2017-07-19T08:57:19.993Z,990.45
2017-07-19T08:58:20.112Z,990.50
2017-07-19T08:59:20.125Z,990.48
2017-07-19T09:00:20.127Z,990.45
2017-07-19T09:01:20.108Z,990.42
2017-07-19T09:02:20.188Z,990.43
2017-07-19T09:03:20.076Z,990.30
2017-07-19T09:04:20.269Z,990.35
2017-07-19T09:05:20.163Z,990.37
2017-07-19T09:06:20.259Z,990.43
2017-07-19T09:07:19.963Z,990.28
2017-07-19T09:08:19.970Z,990.32
2017-07-19T09:09:20.200Z,990.32
2017-07-19T09:10:20.012Z,990.29
2017-07-19T09:11:19.816Z,990.31
2017-07-19T09:12:19.722Z,990.26
2017-07-19T09:13:19.729Z,990.24
2017-07-19T09:14:20.146Z,990.33
2017-07-19T09:15:20.166Z,990.25
2017-07-19T09:16:20.262Z,990.25
2017-07-19T09:17:20.376Z,990.18
2017-07-19T09:18:20.423Z,990.15
2017-07-19T09:19:20.166Z,990.16
2017-07-19T09:20:20.206Z,990.11
2017-07-19T09:21:20.187Z,990.11
2017-07-19T09:22:20.369Z,990.03
2017-07-19T09:23:20.439Z,990.02
2017-07-19T09:24:20.755Z,990.00
2017-07-19T09:25:20.065Z,990.11
2017-07-19T09:26:20.088Z,990.10
2017-07-19T09:27:20.703Z,990.09
2017-07-19T09:28:20.131Z,990.04
2017-07-19T09:29:19.794Z,990.07
2017-07-19T09:30:20.320Z,990.10
2017-07-19T09:31:19.818Z,990.12
2017-07-19T09:32:20.299Z,990.02
2017-07-19T09:33:20.213Z,990.02
2017-07-19T09:34:20.321Z,990.03
2017-07-19T09:35:20.408Z,989.96
2017-07-19T09:36:20.320Z,990.00
2017-07-19T09:37:20.215Z,989.94
2017-07-19T09:38:20.349Z,989.84
2017-07-19T09:39:20.236Z,989.89
2017-07-19T09:40:20.426Z,989.83
2017-07-19T09:41:20.431Z,989.85
2017-07-19T09:42:20.029Z,989.84
2017-07-19T09:43:19.831Z,989.88
2017-07-19T09:44:19.833Z,989.80
2017-07-19T09:45:20.180Z,989.80
2017-07-19T09:46:19.908Z,989.78
2017-07-19T09:47:19.863Z,989.75
2017-07-19T09:48:20.256Z,989.80
2017-07-19T09:49:20.216Z,989.69
2017-07-19T09:50:20.318Z,989.73
2017-07-19T09:51:20.311Z,989.72
2017-07-19T09:52:20.509Z,989.65
2017-07-19T09:53:20.307Z,989.65
2017-07-19T09:54:20.312Z,989.67
2017-07-19T09:55:20.313Z,989.63
2017-07-19T09:56:20.395Z,989.66
2017-07-19T09:57:20.063Z,989.62
2017-07-19T09:58:20.108Z,989.58
2017-07-19T09:59:20.152Z,989.56
2017-07-19T10:00:20.208Z,989.63
2017-07-19T10:01:20.227Z,989.46
2017-07-19T10:02:19.943Z,989.59
2017-07-19T10:03:20.042Z,989.48
2017-07-19T10:04:19.914Z,989.41
2017-07-19T10:05:20.482Z,989.42
2017-07-19T10:06:20.463Z,989.44
2017-07-19T10:07:20.357Z,989.38
2017-07-19T10:08:20.590Z,989.40
2017-07-19T10:09:20.612Z,989.41
2017-07-19T10:10:20.408Z,989.30
2017-07-19T10:11:20.416Z,989.37
2017-07-19T10:12:20.370Z,989.31
2017-07-19T10:13:20.129Z,989.28
2017-07-19T10:14:20.496Z,989.25
2017-07-19T10:15:20.451Z,989.22
2017-07-19T10:16:19.909Z,989.24
2017-07-19T10:17:19.967Z,989.23
2017-07-19T10:18:19.962Z,989.29
2017-07-19T10:19:20.017Z,989.28
2017-07-19T10:20:20.002Z,989.16
2017-07-19T10:21:19.951Z,989.14
2017-07-19T10:22:20.621Z,989.25
2017-07-19T10:23:20.620Z,989.16
2017-07-19T10:24:20.345Z,989.11
2017-07-19T10:25:20.593Z,989.15
2017-07-19T10:26:20.647Z,989.19
2017-07-19T10:27:20.411Z,989.13
2017-07-19T10:28:20.400Z,989.16
2017-07-19T10:29:20.400Z,989.13
2017-07-19T10:30:20.534Z,989.14
2017-07-19T10:31:21.060Z,989.09
2017-07-19T10:32:25.164Z,989.00
2017-07-19T10:33:29.858Z,989.03
2017-07-19T10:34:25.122Z,989.06
2017-07-19T10:35:20.072Z,988.98
2017-07-19T10:36:20.415Z,988.99
2017-07-19T10:37:20.559Z,989.06
2017-07-19T10:38:20.377Z,989.03
2017-07-19T10:39:20.413Z,988.95
2017-07-19T10:40:20.368Z,989.01
2017-07-19T10:41:20.431Z,989.02
2017-07-19T10:42:20.475Z,988.99
2017-07-19T10:43:20.840Z,988.85
2017-07-19T10:44:20.416Z,988.85
2017-07-19T10:45:20.706Z,988.87
2017-07-19T10:46:20.247Z,988.91
2017-07-19T10:47:20.408Z,988.90
2017-07-19T10:48:20.265Z,988.89
2017-07-19T10:49:20.376Z,988.82
2017-07-19T10:50:20.483Z,988.84
2017-07-19T10:51:20.038Z,988.79
2017-07-19T10:52:20.113Z,988.86
2017-07-19T10:53:20.291Z,988.86
2017-07-19T10:54:20.141Z,988.84
2017-07-19T10:55:20.436Z,988.77
2017-07-19T10:56:20.613Z,988.77
2017-07-19T10:57:20.477Z,988.83
2017-07-19T10:58:20.492Z,988.72
2017-07-19T10:59:20.427Z,988.73
2017-07-19T11:00:20.496Z,988.71
2017-07-19T11:01:20.530Z,988.79
2017-07-19T11:02:20.456Z,988.66
2017-07-19T11:03:20.268Z,988.71
2017-07-19T11:04:20.283Z,988.67
2017-07-19T11:05:20.395Z,988.68
2017-07-19T11:06:20.348Z,988.65
2017-07-19T11:07:20.123Z,988.63
2017-07-19T11:08:20.160Z,988.60
2017-07-19T11:09:20.124Z,988.57
2017-07-19T11:10:20.197Z,988.51
2017-07-19T11:11:20.200Z,988.47
2017-07-19T11:12:20.535Z,988.40
2017-07-19T11:13:20.714Z,988.43
2017-07-19T11:14:20.664Z,988.43
2017-07-19T11:15:20.522Z,988.45
2017-07-19T11:16:20.603Z,988.49
2017-07-19T11:17:20.613Z,988.47
2017-07-19T11:18:20.564Z,988.54
2017-07-19T11:19:20.340Z,988.55
2017-07-19T11:20:20.449Z,988.54
2017-07-19T11:21:20.924Z,988.55
2017-07-19T11:22:20.482Z,988.53
2017-07-19T11:23:20.588Z,988.50
2017-07-19T11:24:20.200Z,988.50
2017-07-19T11:25:20.619Z,988.40
2017-07-19T11:26:20.637Z,988.46
2017-07-19T11:27:20.149Z,988.45
2017-07-19T11:28:20.512Z,988.48
2017-07-19T11:29:20.503Z,988.50
2017-07-19T11:30:20.816Z,988.45
2017-07-19T11:31:20.702Z,988.40
2017-07-19T11:32:20.686Z,988.37
2017-07-19T11:33:20.775Z,988.41
2017-07-19T11:34:20.782Z,988.48
2017-07-19T11:35:20.317Z,988.37
2017-07-19T11:36:21.017Z,988.32
2017-07-19T11:37:20.512Z,988.45
2017-07-19T11:38:20.349Z,988.46
2017-07-19T11:39:20.670Z,988.39
2017-07-19T11:40:20.669Z,988.40
2017-07-19T11:41:22.385Z,988.34
2017-07-19T11:42:20.174Z,988.33
2017-07-19T11:43:20.588Z,988.33
2017-07-19T11:44:20.693Z,988.32
2017-07-19T11:45:20.585Z,988.32
2017-07-19T11:46:20.664Z,988.30
2017-07-19T11:47:20.722Z,988.37
2017-07-19T11:48:20.639Z,988.43
2017-07-19T11:49:20.681Z,988.45
2017-07-19T11:50:20.660Z,988.41
2017-07-19T11:51:20.707Z,988.43
2017-07-19T11:52:20.676Z,988.42
2017-07-19T11:53:20.369Z,988.40
2017-07-19T11:54:20.601Z,988.29
2017-07-19T11:55:20.816Z,988.34
2017-07-19T11:56:20.259Z,988.25
2017-07-19T11:57:20.776Z,988.29
2017-07-19T11:58:20.212Z,988.27
2017-07-19T11:59:20.350Z,988.22
2017-07-19T12:00:20.363Z,988.23
2017-07-19T12:01:20.385Z,988.27
2017-07-19T12:02:20.794Z,988.28
2017-07-19T12:03:20.611Z,988.29
2017-07-19T12:04:20.626Z,988.22
2017-07-19T12:05:20.631Z,988.15
2017-07-19T12:06:20.735Z,988.16
2017-07-19T12:07:21.037Z,988.18
2017-07-19T12:08:20.712Z,988.09
2017-07-19T12:09:20.465Z,988.06
2017-07-19T12:10:20.841Z,988.03
2017-07-19T12:11:20.476Z,988.06
2017-07-19T12:12:20.768Z,988.03
2017-07-19T12:13:20.311Z,987.93
2017-07-19T12:14:20.286Z,988.04
2017-07-19T12:15:20.366Z,988.08
2017-07-19T12:16:20.320Z,988.05
2017-07-19T12:17:20.789Z,988.12
2017-07-19T12:18:20.778Z,988.09
2017-07-19T12:19:20.754Z,988.14
2017-07-19T12:20:20.719Z,988.13
2017-07-19T12:21:21.618Z,988.09
2017-07-19T12:22:20.721Z,988.02
2017-07-19T12:23:20.776Z,988.01
2017-07-19T12:24:20.786Z,988.02
2017-07-19T12:25:21.077Z,988.08